createdAt,value
2023-05-22T00:00:58.564Z,0.00
2023-05-22T00:01:58.521Z,0.00
2023-05-22T00:02:58.631Z,0.00
2023-05-22T00:03:58.477Z,0.00
2023-05-22T00:04:58.561Z,0.00
2023-05-22T00:05:58.510Z,0.00
2023-05-22T00:06:58.581Z,0.00
2023-05-22T00:07:58.494Z,0.00
2023-05-22T00:08:58.492Z,0.00
2023-05-22T00:09:58.511Z,0.00
2023-05-22T00:10:59.019Z,0.00
2023-05-22T00:11:58.427Z,0.00
2023-05-22T00:13:01.365Z,0.00
2023-05-22T00:13:58.446Z,0.00
2023-05-22T00:14:58.421Z,0.00
2023-05-22T00:15:59.409Z,0.00
2023-05-22T00:16:58.594Z,0.00
2023-05-22T00:17:58.488Z,0.00
2023-05-22T00:18:58.795Z,0.00
2023-05-22T00:19:58.378Z,0.00
2023-05-22T00:20:58.439Z,0.00
2023-05-22T00:21:59.331Z,0.00
2023-05-22T00:22:58.381Z,0.00
2023-05-22T00:23:58.554Z,0.00
2023-05-22T00:24:58.335Z,0.00
2023-05-22T00:25:58.336Z,0.00
2023-05-22T00:26:58.341Z,0.00
2023-05-22T00:27:58.315Z,0.00
2023-05-22T00:28:58.318Z,0.00
2023-05-22T00:29:58.314Z,0.00
2023-05-22T00:30:58.275Z,0.00
2023-05-22T00:31:58.313Z,0.00
2023-05-22T00:32:58.447Z,0.00
2023-05-22T00:33:58.271Z,0.00
2023-05-22T00:34:58.275Z,0.00
2023-05-22T00:35:58.241Z,0.00
2023-05-22T00:36:58.252Z,0.00
2023-05-22T00:37:58.258Z,0.00
2023-05-22T00:38:58.216Z,0.00
2023-05-22T00:39:58.232Z,0.00
2023-05-22T00:40:58.243Z,0.00
2023-05-22T00:41:58.223Z,0.00
2023-05-22T00:42:58.256Z,0.00
2023-05-22T00:43:58.201Z,0.00
2023-05-22T00:44:58.191Z,0.00
2023-05-22T00:45:58.169Z,0.00
2023-05-22T00:46:58.224Z,0.00
2023-05-22T00:47:59.098Z,0.00
2023-05-22T00:48:58.178Z,0.00
2023-05-22T00:49:58.155Z,0.00
2023-05-22T00:50:58.144Z,0.00
2023-05-22T00:51:59.112Z,0.00
2023-05-22T00:52:58.131Z,0.00
2023-05-22T00:53:58.334Z,0.00
2023-05-22T00:54:58.125Z,0.00
2023-05-22T00:55:58.140Z,0.00
2023-05-22T00:56:58.101Z,0.00
2023-05-22T00:57:58.089Z,0.00
2023-05-22T00:58:58.082Z,0.00
2023-05-22T00:59:58.120Z,0.00
2023-05-22T01:00:58.097Z,0.00
2023-05-22T01:01:58.084Z,0.00
2023-05-22T01:02:58.113Z,0.00
2023-05-22T01:03:58.188Z,0.00
2023-05-22T01:04:58.191Z,0.00
2023-05-22T01:05:58.089Z,0.00
2023-05-22T01:06:58.047Z,0.00
2023-05-22T01:07:58.020Z,0.00
2023-05-22T01:08:58.024Z,0.00
2023-05-22T01:09:57.997Z,0.00
2023-05-22T01:10:57.992Z,0.00
2023-05-22T01:11:58.046Z,0.00
2023-05-22T01:12:57.963Z,0.00
2023-05-22T01:13:57.944Z,0.00
2023-05-22T01:14:57.954Z,0.00
2023-05-22T01:15:58.165Z,0.00
2023-05-22T01:16:57.983Z,0.00
2023-05-22T01:17:57.936Z,0.00
2023-05-22T01:18:57.930Z,0.00
2023-05-22T01:19:57.929Z,0.00
2023-05-22T01:20:57.912Z,0.00
2023-05-22T01:21:57.898Z,0.00
2023-05-22T01:22:57.957Z,0.00
2023-05-22T01:23:57.897Z,0.00
2023-05-22T01:24:57.881Z,0.00
2023-05-22T01:25:57.870Z,0.00
2023-05-22T01:26:57.845Z,0.00
2023-05-22T01:27:58.516Z,0.00
2023-05-22T01:28:57.832Z,0.00
2023-05-22T01:29:57.859Z,0.00
2023-05-22T01:30:58.043Z,0.00
2023-05-22T01:31:57.824Z,0.00
2023-05-22T01:32:57.951Z,0.00
2023-05-22T01:33:58.012Z,0.00
2023-05-22T01:34:57.817Z,0.00
2023-05-22T01:35:57.787Z,0.00
2023-05-22T01:36:58.513Z,0.00
2023-05-22T01:37:57.812Z,0.00
2023-05-22T01:38:57.786Z,0.00
2023-05-22T01:39:57.750Z,0.00
2023-05-22T01:40:57.784Z,0.00
2023-05-22T01:41:57.743Z,0.00
2023-05-22T01:42:57.731Z,0.00
2023-05-22T01:43:57.782Z,0.00
2023-05-22T01:44:57.706Z,0.00
2023-05-22T01:45:57.780Z,0.00
2023-05-22T01:46:57.694Z,0.00
2023-05-22T01:47:57.813Z,0.00
2023-05-22T01:48:57.657Z,0.00
2023-05-22T01:49:57.723Z,0.00
2023-05-22T01:50:57.899Z,0.00
2023-05-22T01:51:57.650Z,0.00
2023-05-22T01:52:57.647Z,0.00
2023-05-22T01:53:57.623Z,0.00
2023-05-22T01:54:57.652Z,0.00
2023-05-22T01:55:57.619Z,0.00
2023-05-22T01:56:57.647Z,0.00
2023-05-22T01:57:57.597Z,0.00
2023-05-22T01:58:57.600Z,0.00
2023-05-22T01:59:57.622Z,0.00
2023-05-22T02:00:57.677Z,0.00
2023-05-22T02:01:57.587Z,0.00
2023-05-22T02:02:57.687Z,0.00
2023-05-22T02:03:57.574Z,0.00
2023-05-22T02:04:57.556Z,0.00
2023-05-22T02:05:57.594Z,0.00
2023-05-22T02:06:57.561Z,0.00
2023-05-22T02:07:57.513Z,0.00
2023-05-22T02:08:57.548Z,0.00
2023-05-22T02:09:57.516Z,0.00
2023-05-22T02:10:57.548Z,0.00
2023-05-22T02:11:57.497Z,0.00
2023-05-22T02:12:58.516Z,0.00
2023-05-22T02:13:57.552Z,0.00
2023-05-22T02:14:57.482Z,0.00
2023-05-22T02:15:57.523Z,0.00
2023-05-22T02:16:57.572Z,0.00
2023-05-22T02:17:57.558Z,0.00
2023-05-22T02:18:57.505Z,0.00
2023-05-22T02:19:57.441Z,0.00
2023-05-22T02:20:57.451Z,0.00
2023-05-22T02:21:57.421Z,0.00
2023-05-22T02:22:57.388Z,0.00
2023-05-22T02:23:57.400Z,0.00
2023-05-22T02:24:57.409Z,0.00
2023-05-22T02:25:57.432Z,0.00
2023-05-22T02:26:57.349Z,0.00
2023-05-22T02:27:57.385Z,0.00
2023-05-22T02:28:58.361Z,0.00
2023-05-22T02:29:58.726Z,0.00
2023-05-22T02:30:57.400Z,0.00
2023-05-22T02:31:57.366Z,0.00
2023-05-22T02:32:57.379Z,0.00
2023-05-22T02:33:57.311Z,0.00
2023-05-22T02:34:57.323Z,0.00
2023-05-22T02:35:57.335Z,0.00
2023-05-22T02:36:57.285Z,0.00
2023-05-22T02:37:57.417Z,0.00
2023-05-22T02:38:57.319Z,0.00
2023-05-22T02:39:57.265Z,0.00
2023-05-22T02:40:57.274Z,0.00
2023-05-22T02:41:57.229Z,0.00
2023-05-22T02:42:58.108Z,0.00
2023-05-22T02:43:57.293Z,0.00
2023-05-22T02:44:57.274Z,0.00
2023-05-22T02:45:57.209Z,0.00
2023-05-22T02:46:57.433Z,0.00
2023-05-22T02:47:57.269Z,0.00
2023-05-22T02:48:58.052Z,0.00
2023-05-22T02:49:58.117Z,0.00
2023-05-22T02:50:57.192Z,0.00
2023-05-22T02:51:57.216Z,0.00
2023-05-22T02:52:57.222Z,0.00
2023-05-22T02:53:57.213Z,0.00
2023-05-22T02:54:57.225Z,0.00
2023-05-22T02:55:57.177Z,0.00
2023-05-22T02:56:57.198Z,0.00
2023-05-22T02:57:57.124Z,0.00
2023-05-22T02:58:57.130Z,0.00
2023-05-22T02:59:57.216Z,0.00
2023-05-22T03:00:57.119Z,0.00
2023-05-22T03:01:58.109Z,0.00
2023-05-22T03:02:57.236Z,0.00
2023-05-22T03:03:57.995Z,0.00
2023-05-22T03:04:57.117Z,0.00
2023-05-22T03:05:57.067Z,0.00
2023-05-22T03:06:57.090Z,0.00
2023-05-22T03:07:57.052Z,0.00
2023-05-22T03:08:57.051Z,0.00
2023-05-22T03:09:57.108Z,0.00
2023-05-22T03:10:58.038Z,0.00
2023-05-22T03:11:57.050Z,0.00
2023-05-22T03:12:58.021Z,0.00
2023-05-22T03:13:56.990Z,0.00
2023-05-22T03:14:58.031Z,0.00
2023-05-22T03:15:57.014Z,0.00
2023-05-22T03:16:56.988Z,5.62
2023-05-22T03:17:57.029Z,5.62
2023-05-22T03:18:56.974Z,5.62
2023-05-22T03:19:57.084Z,5.62
2023-05-22T03:20:56.982Z,5.62
2023-05-22T03:21:56.953Z,5.62
2023-05-22T03:22:56.945Z,5.62
2023-05-22T03:23:56.958Z,5.62
2023-05-22T03:24:56.983Z,11.25
2023-05-22T03:25:56.974Z,11.25
2023-05-22T03:26:56.981Z,11.25
2023-05-22T03:27:56.891Z,11.25
2023-05-22T03:28:56.963Z,16.88
2023-05-22T03:29:56.897Z,16.88
2023-05-22T03:30:56.901Z,16.88
2023-05-22T03:31:56.872Z,22.50
2023-05-22T03:32:57.856Z,22.50
2023-05-22T03:33:56.884Z,22.50
2023-05-22T03:34:56.866Z,28.12
2023-05-22T03:35:56.842Z,28.12
2023-05-22T03:36:56.827Z,33.75
2023-05-22T03:37:56.852Z,33.75
2023-05-22T03:38:56.824Z,39.38
2023-05-22T03:40:29.426Z,45.00
2023-05-22T03:40:56.822Z,45.00
2023-05-22T03:41:56.832Z,50.62
2023-05-22T03:42:56.790Z,50.62
2023-05-22T03:43:56.789Z,56.25
2023-05-22T03:44:56.739Z,56.25
2023-05-22T03:45:56.807Z,56.25
2023-05-22T03:46:56.769Z,61.88
2023-05-22T04:02:38.550Z,140.62
2023-05-22T04:03:38.405Z,146.25
2023-05-22T04:04:38.689Z,151.88
2023-05-22T04:05:38.443Z,157.50
2023-05-22T04:06:39.531Z,163.12
2023-05-22T04:07:39.565Z,146.25
2023-05-22T04:08:39.542Z,151.88
2023-05-22T04:09:39.473Z,157.50
2023-05-22T04:10:40.371Z,168.75
2023-05-22T04:11:39.494Z,174.38
2023-05-22T04:12:39.500Z,180.00
2023-05-22T04:13:39.487Z,191.25
2023-05-22T04:14:39.468Z,196.88
2023-05-22T04:15:39.513Z,202.50
2023-05-22T04:16:39.438Z,202.50
2023-05-22T04:17:39.422Z,208.12
2023-05-22T04:18:39.388Z,213.75
2023-05-22T04:19:39.420Z,213.75
2023-05-22T04:20:39.648Z,219.38
2023-05-22T04:21:39.418Z,225.00
2023-05-22T04:22:39.416Z,236.25
2023-05-22T04:23:39.394Z,241.88
2023-05-22T04:24:39.406Z,253.12
2023-05-22T04:25:39.350Z,264.38
2023-05-22T04:26:41.751Z,275.62
2023-05-22T04:27:39.351Z,281.25
2023-05-22T04:28:39.363Z,298.12
2023-05-22T04:29:39.403Z,303.75
2023-05-22T04:30:39.466Z,309.38
2023-05-22T04:31:39.413Z,315.00
2023-05-22T04:32:39.324Z,320.62
2023-05-22T04:33:39.300Z,320.62
2023-05-22T04:34:39.318Z,343.12
2023-05-22T04:36:12.591Z,360.00
2023-05-22T04:36:39.267Z,371.25
2023-05-22T04:37:39.306Z,399.38
2023-05-22T04:38:40.287Z,421.88
2023-05-22T04:39:39.235Z,450.00
2023-05-22T04:40:39.420Z,472.50
2023-05-22T04:41:39.287Z,478.12
2023-05-22T04:42:40.112Z,483.75
2023-05-22T04:43:40.128Z,483.75
2023-05-22T04:44:39.256Z,489.38
2023-05-22T04:45:39.191Z,478.12
2023-05-22T04:46:39.276Z,472.50
2023-05-22T04:47:39.235Z,421.88
2023-05-22T04:48:39.164Z,461.25
2023-05-22T04:49:39.205Z,444.38
2023-05-22T04:50:40.423Z,466.88
2023-05-22T04:51:39.174Z,483.75
2023-05-22T04:52:39.161Z,511.88
2023-05-22T04:53:39.128Z,534.38
2023-05-22T04:54:39.168Z,579.38
2023-05-22T04:55:39.186Z,601.88
2023-05-22T04:56:39.119Z,624.38
2023-05-22T04:57:39.136Z,635.62
2023-05-22T04:58:39.130Z,646.88
2023-05-22T04:59:39.225Z,686.25
2023-05-22T05:00:39.212Z,736.88
2023-05-22T05:01:39.175Z,815.62
2023-05-22T05:02:39.110Z,945.00
2023-05-22T05:03:39.231Z,1102.50
2023-05-22T05:04:39.086Z,1260.00
2023-05-22T05:05:39.033Z,1406.25
2023-05-22T05:06:39.048Z,1479.38
2023-05-22T05:07:39.061Z,1530.00
2023-05-22T05:08:39.061Z,1625.62
2023-05-22T05:09:38.998Z,1546.88
2023-05-22T05:10:39.137Z,1400.62
2023-05-22T05:11:39.010Z,1327.50
2023-05-22T05:12:39.023Z,1254.38
2023-05-22T05:13:39.046Z,1198.12
2023-05-22T05:14:38.960Z,1181.25
2023-05-22T05:15:38.999Z,1186.88
2023-05-22T05:16:38.992Z,1203.75
2023-05-22T05:17:38.997Z,1237.50
2023-05-22T05:18:38.976Z,1243.12
2023-05-22T05:19:39.043Z,1231.88
2023-05-22T05:20:39.239Z,1248.75
2023-05-22T05:21:38.957Z,1276.88
2023-05-22T05:22:39.008Z,1254.38
2023-05-22T05:23:38.927Z,1254.38
2023-05-22T05:24:38.926Z,1310.62
2023-05-22T05:25:38.923Z,1316.25
2023-05-22T05:26:38.900Z,1355.62
2023-05-22T05:27:38.858Z,1400.62
2023-05-22T05:28:38.888Z,1395.00
2023-05-22T05:29:38.909Z,1344.38
2023-05-22T05:30:39.004Z,1299.38
2023-05-22T05:31:38.913Z,1276.88
2023-05-22T05:32:38.884Z,1260.00
2023-05-22T05:33:38.878Z,1220.62
2023-05-22T05:34:39.008Z,1158.75
2023-05-22T05:35:40.195Z,1068.75
2023-05-22T05:36:38.799Z,1006.88
2023-05-22T05:37:38.797Z,1001.25
2023-05-22T05:38:38.814Z,1147.50
2023-05-22T05:39:38.840Z,1265.62
2023-05-22T05:40:39.111Z,1299.38
2023-05-22T05:41:39.673Z,1293.75
2023-05-22T05:42:38.771Z,1333.12
2023-05-22T05:43:38.807Z,1293.75
2023-05-22T05:44:38.763Z,1215.00
2023-05-22T05:45:38.764Z,1231.88
2023-05-22T05:46:38.897Z,1305.00
2023-05-22T05:47:38.887Z,1378.12
2023-05-22T05:48:38.761Z,1411.88
2023-05-22T05:49:39.713Z,1417.50
2023-05-22T05:50:39.147Z,1406.25
2023-05-22T05:51:38.681Z,1333.12
2023-05-22T05:52:38.702Z,1293.75
2023-05-22T05:53:38.683Z,1271.25
2023-05-22T05:54:38.702Z,1237.50
2023-05-22T05:55:38.676Z,1282.50
2023-05-22T05:56:38.693Z,1316.25
2023-05-22T05:57:39.681Z,1288.12
2023-05-22T05:58:38.683Z,1243.12
2023-05-22T05:59:38.666Z,1243.12
2023-05-22T06:00:38.783Z,1276.88
2023-05-22T06:01:38.832Z,1288.12
2023-05-22T06:02:38.690Z,1321.88
2023-05-22T06:03:38.740Z,1411.88
2023-05-22T06:04:38.607Z,1406.25
2023-05-22T06:05:38.634Z,1355.62
2023-05-22T06:06:38.577Z,1344.38
2023-05-22T06:07:38.605Z,1395.00
2023-05-22T06:08:38.600Z,1428.75
2023-05-22T06:09:38.567Z,1445.62
2023-05-22T06:10:38.881Z,1462.50
2023-05-22T06:11:38.581Z,1428.75
2023-05-22T06:12:38.565Z,1496.25
2023-05-22T06:13:38.588Z,1597.50
2023-05-22T06:14:38.593Z,1586.25
2023-05-22T06:15:38.570Z,1546.88
2023-05-22T06:16:38.598Z,1580.62
2023-05-22T06:17:38.554Z,1563.75
2023-05-22T06:18:38.514Z,1546.88
2023-05-22T06:19:38.523Z,1507.50
2023-05-22T06:20:38.692Z,1485.00
2023-05-22T06:21:38.491Z,1473.75
2023-05-22T06:22:39.148Z,1456.88
2023-05-22T06:23:38.466Z,1445.62
2023-05-22T06:24:38.474Z,1479.38
2023-05-22T06:25:38.475Z,1518.75
2023-05-22T06:26:38.547Z,1575.00
2023-05-22T06:27:38.455Z,1642.50
2023-05-22T06:28:38.467Z,1693.12
2023-05-22T06:29:38.454Z,1681.88
2023-05-22T06:30:43.415Z,1698.75
2023-05-22T06:31:40.472Z,1715.62
2023-05-22T06:32:38.508Z,1766.25
2023-05-22T06:33:38.458Z,1783.12
2023-05-22T06:34:38.448Z,1777.50
2023-05-22T06:35:38.409Z,1788.75
2023-05-22T06:36:38.390Z,1828.12
2023-05-22T06:37:38.397Z,1833.75
2023-05-22T06:38:38.394Z,1912.50
2023-05-22T06:39:38.379Z,1985.62
2023-05-22T06:40:38.483Z,2002.50
2023-05-22T06:41:38.371Z,2013.75
2023-05-22T06:42:38.490Z,2041.88
2023-05-22T06:43:38.438Z,2098.12
2023-05-22T06:44:38.327Z,2075.62
2023-05-22T06:45:38.331Z,1996.88
2023-05-22T06:46:38.358Z,1918.12
2023-05-22T06:47:38.303Z,1861.88
2023-05-22T06:48:38.305Z,1743.75
2023-05-22T06:49:38.300Z,1687.50
2023-05-22T06:50:38.381Z,1631.25
2023-05-22T06:51:38.269Z,1591.88
2023-05-22T06:52:38.275Z,1575.00
2023-05-22T06:53:38.271Z,1552.50
2023-05-22T06:54:38.240Z,1541.25
2023-05-22T06:55:38.226Z,1496.25
2023-05-22T06:56:38.231Z,1513.12
2023-05-22T06:57:38.228Z,1569.38
2023-05-22T06:58:38.219Z,1586.25
2023-05-22T06:59:38.225Z,1603.12
2023-05-22T07:00:38.570Z,1642.50
2023-05-22T07:01:38.216Z,1738.12
2023-05-22T07:02:38.217Z,1771.88
2023-05-22T07:03:38.170Z,1777.50
2023-05-22T07:04:38.199Z,1794.38
2023-05-22T07:05:38.240Z,1794.38
2023-05-22T07:06:38.166Z,1895.62
2023-05-22T07:07:38.151Z,1861.88
2023-05-22T07:08:38.174Z,1833.75
2023-05-22T07:09:38.148Z,1771.88
2023-05-22T07:10:38.248Z,1710.00
2023-05-22T07:11:38.109Z,1681.88
2023-05-22T07:12:38.101Z,1636.88
2023-05-22T07:13:38.132Z,1620.00
2023-05-22T07:14:38.146Z,1642.50
2023-05-22T07:15:38.118Z,1687.50
2023-05-22T07:16:38.167Z,1659.38
2023-05-22T07:17:38.098Z,1591.88
2023-05-22T07:18:38.054Z,1569.38
2023-05-22T07:19:38.093Z,1552.50
2023-05-22T07:20:38.288Z,1524.38
2023-05-22T07:21:38.041Z,1462.50
2023-05-22T07:22:38.006Z,1417.50
2023-05-22T07:23:38.023Z,1383.75
2023-05-22T07:24:38.028Z,1366.88
2023-05-22T07:25:38.061Z,1372.50
2023-05-22T07:26:38.027Z,1378.12
2023-05-22T07:27:37.999Z,1372.50
2023-05-22T07:28:38.007Z,1383.75
2023-05-22T07:29:37.986Z,1383.75
2023-05-22T07:30:38.296Z,1366.88
2023-05-22T07:31:38.082Z,1366.88
2023-05-22T07:32:38.011Z,1361.25
2023-05-22T07:33:37.940Z,1383.75
2023-05-22T07:34:38.040Z,1400.62
2023-05-22T07:35:37.897Z,1366.88
2023-05-22T07:36:37.952Z,1400.62
2023-05-22T07:37:37.959Z,1428.75
2023-05-22T07:38:37.890Z,1440.00
2023-05-22T07:39:37.911Z,1445.62
2023-05-22T07:40:38.170Z,1468.12
2023-05-22T07:41:37.908Z,1490.62
2023-05-22T07:42:37.858Z,1496.25
2023-05-22T07:43:37.885Z,1462.50
2023-05-22T07:44:37.991Z,1462.50
2023-05-22T07:45:37.974Z,1485.00
2023-05-22T07:46:38.238Z,1473.75
2023-05-22T07:47:37.936Z,1423.12
2023-05-22T07:48:38.886Z,1406.25
2023-05-22T07:49:37.812Z,1372.50
2023-05-22T07:50:37.811Z,1158.75
2023-05-22T07:51:37.787Z,1130.62
2023-05-22T07:52:37.815Z,1051.88
2023-05-22T07:53:37.781Z,1012.50
2023-05-22T07:54:37.919Z,990.00
2023-05-22T07:55:37.957Z,984.38
2023-05-22T07:56:37.798Z,945.00
2023-05-22T07:57:37.786Z,990.00
2023-05-22T07:58:37.742Z,877.50
2023-05-22T07:59:37.815Z,866.25
2023-05-22T08:00:37.753Z,866.25
2023-05-22T08:01:37.752Z,950.62
2023-05-22T08:02:37.992Z,1181.25
2023-05-22T08:03:37.904Z,956.25
2023-05-22T08:04:38.914Z,866.25
2023-05-22T08:05:37.728Z,967.50
2023-05-22T08:06:37.742Z,883.12
2023-05-22T08:07:37.691Z,871.88
2023-05-22T08:08:37.736Z,894.38
2023-05-22T08:09:37.730Z,933.75
2023-05-22T08:12:10.140Z,939.38
2023-05-22T08:12:37.708Z,967.50
2023-05-22T08:14:09.601Z,1063.12
2023-05-22T08:15:11.817Z,1001.25
2023-05-22T08:15:37.712Z,1023.75
2023-05-22T08:16:37.865Z,1057.50
2023-05-22T08:17:37.697Z,1170.00
2023-05-22T08:18:37.941Z,1080.00
2023-05-22T08:19:37.930Z,1108.12
2023-05-22T08:20:37.961Z,1141.88
2023-05-22T08:21:37.817Z,1175.62
2023-05-22T08:22:37.673Z,1265.62
2023-05-22T08:23:37.563Z,1243.12
2023-05-22T08:24:37.633Z,1265.62
2023-05-22T08:25:37.585Z,1265.62
2023-05-22T08:26:37.686Z,1260.00
2023-05-22T08:27:37.667Z,1254.38
2023-05-22T08:28:37.555Z,1254.38
2023-05-22T08:29:37.579Z,1260.00
2023-05-22T08:30:37.829Z,1248.75
2023-05-22T08:31:37.533Z,1265.62
2023-05-22T08:32:37.658Z,1276.88
2023-05-22T08:33:39.205Z,1288.12
2023-05-22T08:34:37.742Z,1288.12
2023-05-22T08:35:37.488Z,1310.62
2023-05-22T08:36:37.499Z,1310.62
2023-05-22T08:37:37.483Z,1310.62
2023-05-22T08:38:37.541Z,1321.88
2023-05-22T08:39:37.448Z,1344.38
2023-05-22T08:40:37.676Z,1338.75
2023-05-22T08:41:37.427Z,1327.50
2023-05-22T08:42:37.456Z,1333.12
2023-05-22T08:43:37.501Z,1327.50
2023-05-22T08:44:37.435Z,1310.62
2023-05-22T08:45:37.472Z,1299.38
2023-05-22T08:46:37.454Z,1305.00
2023-05-22T08:47:37.503Z,1305.00
2023-05-22T08:48:37.386Z,1305.00
2023-05-22T08:49:37.385Z,1288.12
2023-05-22T08:50:37.883Z,1276.88
2023-05-22T08:51:37.413Z,1282.50
2023-05-22T08:52:37.376Z,1260.00
2023-05-22T08:53:37.386Z,1243.12
2023-05-22T08:54:37.362Z,1226.25
2023-05-22T08:55:37.401Z,1231.88
2023-05-22T08:56:39.837Z,1231.88
2023-05-22T08:57:38.351Z,1237.50
2023-05-22T08:58:37.313Z,1220.62
2023-05-22T08:59:37.337Z,1226.25
2023-05-22T09:00:38.469Z,1209.38
2023-05-22T09:01:37.351Z,1209.38
2023-05-22T09:02:37.366Z,1198.12
2023-05-22T09:03:38.336Z,1215.00
2023-05-22T09:04:37.410Z,1203.75
2023-05-22T09:05:37.392Z,1203.75
2023-05-22T09:06:37.440Z,1215.00
2023-05-22T09:07:37.314Z,1226.25
2023-05-22T09:08:37.350Z,1220.62
2023-05-22T09:09:37.368Z,1220.62
2023-05-22T09:10:37.457Z,1220.62
2023-05-22T09:11:37.238Z,1215.00
2023-05-22T09:12:37.249Z,1215.00
2023-05-22T09:14:09.254Z,1215.00
2023-05-22T09:14:38.201Z,1215.00
2023-05-22T09:15:37.215Z,1209.38
2023-05-22T09:16:37.207Z,1226.25
2023-05-22T09:17:37.249Z,1215.00
2023-05-22T09:18:37.148Z,1203.75
2023-05-22T09:19:38.210Z,1175.62
2023-05-22T09:20:37.324Z,1170.00
2023-05-22T09:21:37.149Z,1158.75
2023-05-22T09:22:37.158Z,1147.50
2023-05-22T09:23:37.128Z,1125.00
2023-05-22T09:24:37.113Z,1108.12
2023-05-22T09:25:37.189Z,1136.25
2023-05-22T09:26:37.143Z,1153.12
2023-05-22T09:27:37.090Z,1153.12
2023-05-22T09:28:37.121Z,1158.75
2023-05-22T09:29:37.173Z,1158.75
2023-05-22T09:30:37.180Z,1158.75
2023-05-22T09:31:37.705Z,1164.38
2023-05-22T09:32:37.119Z,1158.75
2023-05-22T09:33:37.639Z,1158.75
2023-05-22T09:34:37.107Z,1153.12
2023-05-22T09:35:37.094Z,1141.88
2023-05-22T09:36:37.067Z,1130.62
2023-05-22T09:37:37.094Z,1102.50
2023-05-22T09:38:37.106Z,1091.25
2023-05-22T09:39:37.034Z,1074.38
2023-05-22T09:40:37.217Z,1068.75
2023-05-22T09:41:37.018Z,1046.25
2023-05-22T09:42:37.011Z,1040.62
2023-05-22T09:43:37.012Z,1029.38
2023-05-22T09:44:37.012Z,1018.12
2023-05-22T09:45:37.034Z,1023.75
2023-05-22T09:46:37.047Z,1023.75
2023-05-22T09:47:36.993Z,1012.50
2023-05-22T09:48:36.995Z,1023.75
2023-05-22T09:49:36.949Z,1018.12
2023-05-22T09:50:37.007Z,1023.75
2023-05-22T09:51:37.063Z,1018.12
2023-05-22T09:52:36.937Z,1018.12
2023-05-22T09:53:38.018Z,1018.12
2023-05-22T09:54:37.084Z,1012.50
2023-05-22T09:55:36.938Z,1012.50
2023-05-22T09:56:39.976Z,1006.88
2023-05-22T09:57:37.921Z,1006.88
2023-05-22T09:58:36.909Z,1006.88
2023-05-22T09:59:36.917Z,1001.25
2023-05-22T10:00:36.917Z,1001.25
2023-05-22T10:01:36.968Z,1001.25
2023-05-22T10:02:36.928Z,1001.25
2023-05-22T10:03:36.881Z,1001.25
2023-05-22T10:04:36.918Z,1001.25
2023-05-22T10:05:36.894Z,1001.25
2023-05-22T10:06:36.876Z,995.62
2023-05-22T10:07:36.847Z,995.62
2023-05-22T10:08:36.862Z,984.38
2023-05-22T10:09:36.839Z,973.12
2023-05-22T10:10:36.858Z,956.25
2023-05-22T10:11:36.889Z,950.62
2023-05-22T10:12:36.849Z,945.00
2023-05-22T10:13:36.816Z,950.62
2023-05-22T10:14:36.816Z,933.75
2023-05-22T10:15:36.868Z,933.75
2023-05-22T10:16:36.854Z,916.88
2023-05-22T10:17:36.815Z,900.00
2023-05-22T10:18:36.789Z,888.75
2023-05-22T10:19:38.593Z,877.50
2023-05-22T10:20:36.959Z,860.62
2023-05-22T10:21:36.743Z,826.88
2023-05-22T10:22:36.761Z,821.25
2023-05-22T10:23:36.731Z,798.75
2023-05-22T10:24:36.712Z,787.50
2023-05-22T10:25:36.714Z,781.88
2023-05-22T10:26:37.426Z,765.00
2023-05-22T10:27:36.693Z,759.38
2023-05-22T10:28:36.694Z,759.38
2023-05-22T10:29:36.747Z,759.38
2023-05-22T10:30:36.729Z,753.75
2023-05-22T10:31:37.964Z,742.50
2023-05-22T10:32:36.688Z,742.50
2023-05-22T10:33:36.724Z,736.88
2023-05-22T10:34:36.640Z,736.88
2023-05-22T10:35:36.668Z,731.25
2023-05-22T10:36:36.676Z,731.25
2023-05-22T10:37:36.642Z,725.62
2023-05-22T10:38:36.617Z,725.62
2023-05-22T10:39:36.637Z,720.00
2023-05-22T10:40:37.362Z,720.00
2023-05-22T10:41:36.660Z,725.62
2023-05-22T10:42:36.664Z,714.38
2023-05-22T10:43:36.612Z,708.75
2023-05-22T10:44:36.557Z,703.12
2023-05-22T10:45:36.756Z,703.12
2023-05-22T10:46:36.579Z,703.12
2023-05-22T10:47:36.584Z,697.50
2023-05-22T10:48:36.538Z,697.50
2023-05-22T10:49:36.525Z,691.88
2023-05-22T10:50:36.560Z,691.88
2023-05-22T10:51:36.549Z,680.62
2023-05-22T10:52:36.531Z,680.62
2023-05-22T10:53:36.545Z,675.00
2023-05-22T10:54:36.523Z,669.38
2023-05-22T10:55:36.546Z,669.38
2023-05-22T10:56:36.526Z,669.38
2023-05-22T10:57:36.461Z,669.38
2023-05-22T10:58:36.538Z,675.00
2023-05-22T10:59:36.455Z,663.75
2023-05-22T11:00:36.522Z,663.75
2023-05-22T11:01:37.515Z,669.38
2023-05-22T11:02:36.476Z,675.00
2023-05-22T11:03:36.499Z,675.00
2023-05-22T11:04:36.434Z,680.62
2023-05-22T11:05:36.402Z,686.25
2023-05-22T11:06:36.484Z,697.50
2023-05-22T11:07:36.424Z,703.12
2023-05-22T11:08:36.363Z,708.75
2023-05-22T11:09:36.513Z,708.75
2023-05-22T11:10:36.417Z,708.75
2023-05-22T11:11:36.365Z,720.00
2023-05-22T11:12:36.400Z,725.62
2023-05-22T11:13:36.478Z,725.62
2023-05-22T11:14:36.456Z,725.62
2023-05-22T11:15:36.357Z,720.00
2023-05-22T11:16:36.398Z,725.62
2023-05-22T11:17:36.547Z,725.62
2023-05-22T11:18:36.331Z,725.62
2023-05-22T11:19:36.364Z,731.25
2023-05-22T11:20:36.325Z,731.25
2023-05-22T11:21:36.311Z,731.25
2023-05-22T11:22:36.306Z,742.50
2023-05-22T11:23:36.290Z,753.75
2023-05-22T11:24:36.300Z,765.00
2023-05-22T11:25:36.332Z,781.88
2023-05-22T11:26:36.248Z,798.75
2023-05-22T11:27:36.239Z,798.75
2023-05-22T11:28:36.279Z,804.38
2023-05-22T11:29:36.214Z,804.38
2023-05-22T11:30:36.994Z,798.75
2023-05-22T11:31:36.348Z,798.75
2023-05-22T11:32:36.261Z,793.12
2023-05-22T11:33:36.200Z,798.75
2023-05-22T11:34:36.256Z,815.62
2023-05-22T11:35:36.242Z,832.50
2023-05-22T11:36:36.207Z,838.12
2023-05-22T11:37:36.182Z,832.50
2023-05-22T11:38:36.185Z,849.38
2023-05-22T11:39:36.190Z,849.38
2023-05-22T11:40:36.232Z,860.62
2023-05-22T11:41:36.185Z,860.62
2023-05-22T11:42:36.172Z,866.25
2023-05-22T11:43:36.139Z,860.62
2023-05-22T11:44:36.115Z,860.62
2023-05-22T11:45:36.118Z,860.62
2023-05-22T11:46:36.290Z,855.00
2023-05-22T11:47:36.231Z,849.38
2023-05-22T11:48:36.116Z,849.38
2023-05-22T11:49:36.095Z,843.75
2023-05-22T11:50:42.178Z,855.00
2023-05-22T11:51:38.154Z,838.12
2023-05-22T11:52:36.077Z,843.75
2023-05-22T11:53:36.074Z,838.12
2023-05-22T11:54:38.621Z,843.75
2023-05-22T11:55:37.859Z,843.75
2023-05-22T11:56:36.192Z,843.75
2023-05-22T11:57:36.915Z,843.75
2023-05-22T11:58:36.034Z,843.75
2023-05-22T11:59:36.107Z,843.75
2023-05-22T12:00:36.034Z,843.75
2023-05-22T12:01:36.007Z,843.75
2023-05-22T12:02:36.241Z,843.75
2023-05-22T12:03:36.243Z,838.12
2023-05-22T12:04:36.062Z,838.12
2023-05-22T12:05:36.001Z,832.50
2023-05-22T12:06:36.076Z,832.50
2023-05-22T12:07:36.020Z,832.50
2023-05-22T12:08:35.984Z,826.88
2023-05-22T12:09:35.949Z,832.50
2023-05-22T12:10:36.117Z,821.25
2023-05-22T12:11:35.924Z,810.00
2023-05-22T12:12:35.975Z,810.00
2023-05-22T12:13:36.042Z,826.88
2023-05-22T12:14:35.910Z,804.38
2023-05-22T12:15:35.951Z,798.75
2023-05-22T12:16:36.052Z,793.12
2023-05-22T12:17:35.926Z,793.12
2023-05-22T12:18:35.975Z,787.50
2023-05-22T12:19:35.989Z,781.88
2023-05-22T12:20:35.969Z,776.25
2023-05-22T12:21:35.902Z,770.62
2023-05-22T12:22:35.858Z,765.00
2023-05-22T12:23:36.854Z,765.00
2023-05-22T12:24:35.877Z,759.38
2023-05-22T12:25:35.821Z,759.38
2023-05-22T12:26:35.837Z,753.75
2023-05-22T12:27:37.276Z,759.38
2023-05-22T12:28:35.819Z,753.75
2023-05-22T12:29:35.813Z,748.12
2023-05-22T12:30:35.816Z,742.50
2023-05-22T12:31:35.874Z,736.88
2023-05-22T12:32:36.790Z,736.88
2023-05-22T12:34:08.440Z,731.25
2023-05-22T12:35:07.722Z,742.50
2023-05-22T12:36:07.713Z,725.62
2023-05-22T12:37:08.377Z,725.62
2023-05-22T12:38:08.405Z,720.00
2023-05-22T12:39:08.441Z,720.00
2023-05-22T12:40:08.472Z,720.00
2023-05-22T12:41:07.681Z,714.38
2023-05-22T12:41:35.757Z,714.38
2023-05-22T12:42:35.725Z,708.75
2023-05-22T12:43:35.769Z,708.75
2023-05-22T12:44:35.715Z,703.12
2023-05-22T12:45:35.689Z,697.50
2023-05-22T12:46:35.790Z,697.50
2023-05-22T12:47:35.712Z,691.88
2023-05-22T12:48:35.676Z,691.88
2023-05-22T12:49:35.756Z,686.25